Time;durP1;ratioP1;P1;durP2;ratioP2;P2;SDS_P1;SDS_P2;PMS_P1;PMS_P2;Temp;Humidity;BMP_temperature;BMP_pressure;BME280_temperature;BME280_humidity;BME280_pressure;Samples;Min_cycle;Max_cycle;Signal;HPM_P1;HPM_P2
2021/10/30 00:02:45;;;;;;;21.10;9.90;;;;;;;6.34;54.76;98828.97;235747;1198;22423;-74
2021/10/30 00:07:47;;;;;;;18.20;9.40;;;;;;;6.38;54.21;98835.96;235814;1190;24088;-72
2021/10/30 00:12:50;;;;;;;15.60;7.70;;;;;;;6.36;54.32;98837.54;235714;1198;25083;-72
2021/10/30 00:17:54;;;;;;;10.70;6.40;;;;;;;6.31;54.24;98835.02;235689;1198;25228;-72
2021/10/30 00:22:56;;;;;;;13.00;6.40;;;;;;;6.26;54.16;98838.83;235605;1198;25716;-73
2021/10/30 00:27:58;;;;;;;11.70;6.70;;;;;;;6.23;54.26;98837.54;235568;1190;24053;-74
2021/10/30 00:33:01;;;;;;;13.50;6.70;;;;;;;6.22;54.14;98840.04;235817;1190;24076;-73
2021/10/30 00:38:04;;;;;;;15.30;7.40;;;;;;;6.18;53.85;98840.69;235875;1190;24047;-73
2021/10/30 00:43:06;;;;;;;13.40;6.40;;;;;;;6.12;54.11;98849.60;235869;1198;24041;-73
2021/10/30 00:48:09;;;;;;;15.40;6.40;;;;;;;6.09;54.54;98841.77;235760;1197;24174;-73
2021/10/30 00:53:12;;;;;;;10.60;5.10;;;;;;;6.12;54.56;98836.84;235726;1198;24092;-72
2021/10/30 00:58:15;;;;;;;9.50;5.40;;;;;;;6.21;54.47;98838.27;235803;1198;22570;-73
2021/10/30 01:03:18;;;;;;;10.60;5.70;;;;;;;6.31;54.45;98828.31;235761;1198;25392;-74
2021/10/30 01:08:34;;;;;;;8.10;4.30;;;;;;;6.46;54.72;98821.78;235577;1193;22772;-74
2021/10/30 01:13:39;;;;;;;7.90;4.20;;;;;;;6.73;54.90;98812.24;235754;1198;25207;-74
2021/10/30 01:18:43;;;;;;;9.70;5.30;;;;;;;7.01;54.62;98806.66;235744;1198;25098;-74
2021/10/30 01:23:55;;;;;;;11.60;6.10;;;;;;;7.19;54.34;98802.10;235761;1198;22581;-72
2021/10/30 01:29:22;;;;;;;8.00;5.30;;;;;;;7.19;54.05;98798.05;235650;1198;24038;-71
2021/10/30 01:34:28;;;;;;;9.30;5.00;;;;;;;7.10;53.98;98795.44;235862;1198;22916;-72
2021/10/30 01:39:31;;;;;;;7.50;5.50;;;;;;;6.99;54.09;98795.32;235821;1198;22458;-72
2021/10/30 01:44:34;;;;;;;7.80;4.70;;;;;;;6.92;54.19;98793.02;235800;1198;24084;-74
2021/10/30 01:49:37;;;;;;;7.00;4.70;;;;;;;6.86;54.23;98789.64;235972;1198;24116;-73
2021/10/30 01:54:40;;;;;;;7.80;4.90;;;;;;;6.82;54.26;98784.20;236013;1192;24066;-74
2021/10/30 01:59:43;;;;;;;7.90;4.70;;;;;;;6.79;54.32;98787.88;235814;1198;24153;-72
2021/10/30 02:04:46;;;;;;;8.50;5.40;;;;;;;6.78;54.53;98786.96;235687;1193;24043;-74
2021/10/30 02:10:00;;;;;;;11.70;6.20;;;;;;;6.76;54.56;98780.84;235816;1197;22461;-74
2021/10/30 02:15:07;;;;;;;8.80;5.50;;;;;;;6.73;54.89;98782.52;235747;1197;25048;-75
2021/10/30 02:20:13;;;;;;;9.60;6.00;;;;;;;6.65;54.95;98778.20;235758;1190;24599;-72
2021/10/30 02:25:15;;;;;;;8.90;5.50;;;;;;;6.54;55.23;98773.27;236054;1197;24072;-72
2021/10/30 02:30:18;;;;;;;12.30;5.40;;;;;;;6.44;55.42;98771.74;235680;1198;22439;-73
2021/10/30 02:35:22;;;;;;;9.10;5.80;;;;;;;6.37;55.57;98771.45;235912;1198;22474;-73
2021/10/30 02:40:26;;;;;;;9.20;6.30;;;;;;;6.29;55.90;98768.77;235863;1198;26253;-72
2021/10/30 02:45:29;;;;;;;11.80;6.00;;;;;;;6.18;56.09;98770.27;235620;1198;25001;-74
2021/10/30 02:50:32;;;;;;;9.70;5.50;;;;;;;6.07;56.12;98769.77;235642;1198;25338;-73
2021/10/30 02:55:36;;;;;;;10.30;6.30;;;;;;;5.92;56.22;98775.73;235780;1198;24350;-73
2021/10/30 03:00:39;;;;;;;8.10;5.20;;;;;;;5.78;56.25;98776.24;235885;1198;22496;-75
2021/10/30 03:05:43;;;;;;;10.40;6.80;;;;;;;5.64;56.70;98772.33;236085;1198;22498;-72
2021/10/30 03:10:46;;;;;;;11.80;6.00;;;;;;;5.51;57.13;98767.66;235787;1197;25184;-74
2021/10/30 03:15:50;;;;;;;9.00;5.60;;;;;;;5.45;57.48;98762.41;235779;1197;22469;-75
2021/10/30 03:20:53;;;;;;;10.30;6.40;;;;;;;5.48;57.63;98756.38;235814;1197;25207;-74
2021/10/30 03:25:57;;;;;;;11.00;7.20;;;;;;;5.54;57.49;98756.05;235756;1197;24030;-73
2021/10/30 03:31:02;;;;;;;10.20;6.00;;;;;;;5.59;57.55;98753.80;235756;1197;22426;-73
2021/10/30 03:36:06;;;;;;;12.60;6.70;;;;;;;5.62;57.45;98751.01;235706;1197;22492;-72
2021/10/30 03:41:09;;;;;;;13.50;6.90;;;;;;;5.62;57.41;98753.23;235536;1198;25200;-73
2021/10/30 03:46:12;;;;;;;11.80;6.50;;;;;;;5.54;57.81;98749.56;235679;1198;25169;-72
2021/10/30 03:51:17;;;;;;;13.00;7.10;;;;;;;5.49;58.16;98746.03;235701;1197;24406;-75
2021/10/30 03:56:20;;;;;;;13.70;6.50;;;;;;;5.48;57.75;98752.40;235929;1198;25124;-76
2021/10/30 04:01:23;;;;;;;10.40;6.80;;;;;;;5.47;58.00;98748.25;235766;1198;24075;-73
2021/10/30 04:06:26;;;;;;;12.10;6.70;;;;;;;5.47;57.99;98743.39;235769;1198;25080;-72
2021/10/30 04:11:28;;;;;;;11.70;7.50;;;;;;;5.46;58.09;98743.23;235742;1193;22465;-74
2021/10/30 04:16:34;;;;;;;13.80;6.90;;;;;;;5.48;58.41;98731.73;235750;1198;24092;-73
2021/10/30 04:21:43;;;;;;;14.50;7.00;;;;;;;5.57;58.61;98734.49;235756;1197;25188;-72
2021/10/30 04:26:46;;;;;;;12.70;7.50;;;;;;;5.74;58.68;98731.88;235846;1192;22451;-73
2021/10/30 04:31:52;;;;;;;12.50;6.80;;;;;;;5.95;58.79;98729.77;235794;1190;24065;-74
2021/10/30 04:36:57;;;;;;;14.80;7.80;;;;;;;6.13;58.57;98729.98;236057;1197;22469;-74
2021/10/30 04:42:00;;;;;;;14.30;7.30;;;;;;;6.30;58.68;98729.07;235892;1190;24085;-72
2021/10/30 04:47:03;;;;;;;11.90;6.70;;;;;;;6.41;58.38;98728.21;235964;1197;22460;-72
2021/10/30 04:52:07;;;;;;;11.50;5.70;;;;;;;6.49;58.47;98719.17;235883;1197;24961;-74
2021/10/30 04:57:22;;;;;;;7.30;5.20;;;;;;;6.63;58.11;98720.17;236088;1183;24017;-75
2021/10/30 05:02:25;;;;;;;9.20;5.10;;;;;;;6.74;57.95;98706.07;235968;1190;24105;-75
2021/10/30 05:07:32;;;;;;;9.70;5.50;;;;;;;6.80;57.89;98701.70;236088;1197;22878;-72
2021/10/30 05:12:35;;;;;;;11.70;4.80;;;;;;;6.92;57.75;98700.98;235905;1190;24016;-74
2021/10/30 05:17:40;;;;;;;7.90;5.40;;;;;;;7.07;57.72;98699.55;235961;1197;25111;-74
2021/10/30 05:22:43;;;;;;;8.50;4.90;;;;;;;7.25;57.40;98692.13;235991;1197;24027;-74
2021/10/30 05:27:46;;;;;;;6.60;4.80;;;;;;;7.39;57.22;98696.42;236128;1190;24071;-73
2021/10/30 05:32:49;;;;;;;7.90;4.30;;;;;;;7.49;56.93;98702.88;236270;1197;24045;-74
2021/10/30 05:38:24;;;;;;;7.60;4.50;;;;;;;7.58;56.67;98703.22;235893;1197;22429;-72
2021/10/30 05:43:26;;;;;;;7.30;4.90;;;;;;;7.62;56.53;98704.91;235921;1190;24021;-74
2021/10/30 05:48:31;;;;;;;7.60;4.90;;;;;;;7.63;56.38;98700.00;235867;1197;24040;-74
2021/10/30 05:53:48;;;;;;;10.80;5.40;;;;;;;7.64;56.50;98702.19;236064;1190;25326;-74
2021/10/30 05:58:51;;;;;;;9.10;6.00;;;;;;;7.67;56.62;98702.88;235958;1197;24291;-73
2021/10/30 06:03:53;;;;;;;9.80;6.10;;;;;;;7.75;56.70;98704.94;236203;1190;24047;-74
2021/10/30 06:08:56;;;;;;;18.70;7.70;;;;;;;7.83;56.61;98712.64;235934;1197;25180;-74
2021/10/30 06:13:58;;;;;;;16.10;9.00;;;;;;;7.90;56.29;98715.83;236002;1197;24068;-72
2021/10/30 06:19:01;;;;;;;11.70;8.00;;;;;;;7.96;56.23;98713.67;236268;1197;24015;-74
2021/10/30 06:24:04;;;;;;;13.00;7.70;;;;;;;7.99;56.20;98715.65;236078;1197;22432;-73
2021/10/30 06:29:06;;;;;;;10.30;7.10;;;;;;;8.00;56.43;98719.42;236223;1190;25116;-75
2021/10/30 06:34:10;;;;;;;16.10;7.40;;;;;;;8.04;56.30;98719.25;235993;1197;22703;-74
2021/10/30 06:39:13;;;;;;;16.90;7.30;;;;;;;8.09;56.40;98712.19;236240;1197;24100;-74
2021/10/30 06:44:21;;;;;;;14.50;8.00;;;;;;;8.15;56.33;98722.40;235945;1197;23213;-73
2021/10/30 06:49:25;;;;;;;14.90;9.50;;;;;;;8.23;56.58;98728.66;236264;1183;24148;-75
2021/10/30 06:54:28;;;;;;;16.60;9.30;;;;;;;8.45;56.95;98734.07;236399;1197;22751;-73
2021/10/30 06:59:35;;;;;;;14.30;9.40;;;;;;;8.77;56.51;98734.12;236177;1196;25587;-74
2021/10/30 07:04:50;;;;;;;17.60;9.60;;;;;;;8.88;56.30;98733.57;236219;1190;22474;-73
2021/10/30 07:09:59;;;;;;;16.70;10.00;;;;;;;9.05;56.70;98723.88;236308;1197;25152;-75
2021/10/30 07:15:07;;;;;;;13.30;7.00;;;;;;;9.26;56.42;98728.25;236325;1197;24084;-75
2021/10/30 07:20:10;;;;;;;19.90;11.10;;;;;;;9.35;56.20;98721.34;236257;1190;24039;-74
2021/10/30 07:25:14;;;;;;;19.40;11.00;;;;;;;9.44;56.20;98721.52;236119;1196;24018;-75
2021/10/30 07:30:17;;;;;;;17.10;10.10;;;;;;;9.55;56.09;98721.89;236309;1190;23065;-73
2021/10/30 07:35:21;;;;;;;16.80;9.60;;;;;;;9.70;56.27;98714.67;235997;1190;23678;-74
2021/10/30 07:40:25;;;;;;;14.30;9.00;;;;;;;9.90;56.22;98711.52;236242;1197;22510;-74
2021/10/30 07:45:40;;;;;;;14.50;8.90;;;;;;;10.12;56.04;98723.80;236020;1190;22489;-72
2021/10/30 07:51:04;;;;;;;14.10;8.40;;;;;;;10.39;56.12;98725.31;236189;1193;22468;-75
2021/10/30 07:56:06;;;;;;;14.00;8.50;;;;;;;10.64;55.92;98723.74;236592;1196;22975;-75
2021/10/30 08:01:09;;;;;;;15.30;7.90;;;;;;;10.90;55.63;98720.25;236022;1197;22533;-74
2021/10/30 08:06:12;;;;;;;13.90;7.80;;;;;;;11.19;55.30;98720.02;235878;1197;24187;-74
2021/10/30 08:11:16;;;;;;;14.30;6.90;;;;;;;11.49;54.69;98727.39;235960;1193;25316;-75
2021/10/30 08:16:19;;;;;;;9.50;5.50;;;;;;;11.81;54.36;98724.77;236044;1190;24153;-74
2021/10/30 08:21:22;;;;;;;7.40;5.10;;;;;;;12.15;53.56;98717.77;235946;1190;24149;-74
2021/10/30 08:26:25;;;;;;;7.50;5.00;;;;;;;12.47;53.01;98715.30;235831;1197;23999;-74
2021/10/30 08:31:28;;;;;;;6.80;4.80;;;;;;;12.82;52.32;98715.56;236085;1196;22535;-74
2021/10/30 08:36:44;;;;;;;8.00;4.80;;;;;;;13.12;51.87;98718.25;236011;1190;25301;-74
2021/10/30 08:41:50;;;;;;;7.10;4.30;;;;;;;13.44;51.07;98714.41;235833;1197;22522;-75
2021/10/30 08:46:53;;;;;;;6.90;4.70;;;;;;;13.72;50.50;98712.55;236033;1197;24132;-73
2021/10/30 08:51:58;;;;;;;5.70;4.30;;;;;;;13.97;50.12;98706.05;235836;1182;22529;-74
2021/10/30 08:57:01;;;;;;;6.80;4.10;;;;;;;14.19;49.33;98698.54;236162;1197;24999;-74
2021/10/30 09:02:05;;;;;;;9.90;4.90;;;;;;;14.41;49.03;98696.55;236078;1197;22432;-75
2021/10/30 09:07:08;;;;;;;6.20;4.70;;;;;;;14.62;48.59;98702.50;235902;1197;23977;-74
2021/10/30 09:12:23;;;;;;;7.00;4.50;;;;;;;14.81;48.41;98699.25;235940;1190;24046;-74
2021/10/30 09:17:27;;;;;;;7.40;5.20;;;;;;;14.99;47.74;98690.86;236277;1197;24043;-72
2021/10/30 09:22:30;;;;;;;6.20;4.50;;;;;;;15.14;47.28;98687.58;235975;1183;22423;-71
2021/10/30 09:27:54;;;;;;;6.90;4.60;;;;;;;15.28;47.14;98686.55;236131;1190;24053;-72
2021/10/30 09:33:03;;;;;;;10.30;4.50;;;;;;;15.44;46.88;98681.71;236078;1198;22426;-72
2021/10/30 09:38:23;;;;;;;7.80;5.70;;;;;;;15.59;46.72;98676.94;236251;1190;25165;-74
2021/10/30 09:43:26;;;;;;;7.70;4.20;;;;;;;15.74;46.04;98677.70;236052;1197;24114;-73
2021/10/30 09:48:40;;;;;;;6.40;4.30;;;;;;;15.89;44.87;98681.08;236180;1189;23104;-74
2021/10/30 09:53:43;;;;;;;7.10;4.70;;;;;;;16.03;44.73;98683.02;236388;1187;22698;-72
2021/10/30 09:58:47;;;;;;;6.40;4.10;;;;;;;16.18;45.21;98682.89;235899;1192;24100;-74
2021/10/30 10:03:50;;;;;;;7.90;4.10;;;;;;;16.32;45.13;98672.59;236126;1190;25172;-76
2021/10/30 10:08:53;;;;;;;9.20;4.60;;;;;;;16.45;44.29;98667.05;236184;1197;22475;-74
2021/10/30 10:13:56;;;;;;;7.40;3.90;;;;;;;16.55;44.34;98661.16;236443;1189;24084;-75
2021/10/30 10:19:01;;;;;;;6.20;4.40;;;;;;;16.66;44.07;98661.80;236895;1190;22434;-77
2021/10/30 10:24:10;;;;;;;6.80;4.50;;;;;;;16.79;44.10;98662.33;236110;1197;24497;-73
2021/10/30 10:29:32;;;;;;;5.90;4.30;;;;;;;16.92;44.13;98658.63;236314;1190;25932;-73
2021/10/30 10:34:37;;;;;;;6.50;4.40;;;;;;;17.06;43.89;98652.55;236181;1197;22439;-73
2021/10/30 10:39:41;;;;;;;7.80;4.20;;;;;;;17.18;44.05;98650.09;236903;1193;22455;-72
2021/10/30 10:44:43;;;;;;;5.10;4.10;;;;;;;17.31;43.66;98653.08;236367;1197;22845;-74
2021/10/30 10:49:48;;;;;;;6.50;4.00;;;;;;;17.42;43.42;98649.64;236032;1197;24183;-72
2021/10/30 10:54:55;;;;;;;7.60;4.30;;;;;;;17.50;43.52;98644.86;236366;1196;24014;-75
2021/10/30 10:59:58;;;;;;;7.30;4.60;;;;;;;17.60;43.55;98636.92;236321;1197;24193;-74
2021/10/30 11:05:08;;;;;;;7.00;5.20;;;;;;;17.70;43.00;98632.02;236108;1174;24075;-74
2021/10/30 11:10:14;;;;;;;4.80;3.80;;;;;;;17.79;42.89;98629.16;235972;1198;25182;-75
2021/10/30 11:15:21;;;;;;;4.80;3.80;;;;;;;17.89;42.95;98620.77;235885;1197;24431;-74
2021/10/30 11:20:40;;;;;;;7.00;4.40;;;;;;;17.97;41.75;98605.32;236121;1183;22449;-75
2021/10/30 11:25:43;;;;;;;5.70;4.20;;;;;;;18.06;41.76;98601.48;236233;1190;24049;-75
2021/10/30 11:30:45;;;;;;;4.60;3.80;;;;;;;18.15;41.84;98607.31;236024;1190;25218;-74
2021/10/30 11:36:17;;;;;;;6.90;4.10;;;;;;;18.21;41.71;98598.27;236148;1190;24184;-74
2021/10/30 11:41:28;;;;;;;5.20;3.90;;;;;;;18.26;41.36;98595.17;236092;1174;24050;-75
2021/10/30 11:46:32;;;;;;;7.10;3.70;;;;;;;18.29;41.12;98599.59;235953;1197;24033;-76
2021/10/30 11:51:35;;;;;;;5.30;4.20;;;;;;;18.33;41.05;98588.08;236044;1192;22568;-74
2021/10/30 11:56:45;;;;;;;6.40;3.80;;;;;;;18.37;41.08;98577.71;236183;1193;22438;-77
2021/10/30 12:01:49;;;;;;;7.90;4.60;;;;;;;18.40;41.01;98578.98;236179;1190;22419;-75
2021/10/30 12:07:00;;;;;;;6.00;4.50;;;;;;;18.43;40.91;98569.92;235872;1193;25311;-75
2021/10/30 12:12:09;;;;;;;6.60;4.30;;;;;;;18.44;40.12;98561.27;235770;1197;22441;-74
2021/10/30 12:17:26;;;;;;;6.10;4.20;;;;;;;18.45;40.46;98560.84;235930;1197;23985;-75
2021/10/30 12:22:31;;;;;;;5.90;4.70;;;;;;;18.43;40.27;98554.27;235971;1193;22484;-75
2021/10/30 12:27:36;;;;;;;5.00;3.90;;;;;;;18.44;40.37;98552.61;236042;1197;22496;-75
2021/10/30 12:32:44;;;;;;;5.70;3.80;;;;;;;18.43;40.29;98549.23;236423;1197;22439;-74
2021/10/30 12:37:47;;;;;;;5.30;3.80;;;;;;;18.44;40.40;98546.26;236481;1197;24126;-75
2021/10/30 12:43:08;;;;;;;5.30;3.70;;;;;;;18.45;40.24;98538.05;235986;1197;24554;-76
2021/10/30 12:48:21;;;;;;;5.80;3.90;;;;;;;18.44;40.28;98537.41;236132;1197;22450;-75
2021/10/30 12:53:30;;;;;;;5.60;3.90;;;;;;;18.43;40.36;98531.88;236115;1181;22619;-75
2021/10/30 12:58:42;;;;;;;6.30;4.00;;;;;;;18.40;40.13;98529.84;236367;1196;25272;-75
2021/10/30 13:04:08;;;;;;;5.70;4.40;;;;;;;18.34;40.01;98530.92;235831;1193;24213;-75
2021/10/30 13:09:17;;;;;;;4.90;3.90;;;;;;;18.28;40.03;98532.80;235942;1197;24087;-73
2021/10/30 13:14:20;;;;;;;5.30;4.20;;;;;;;18.23;40.08;98533.67;235943;1197;25298;-75
2021/10/30 13:19:23;;;;;;;4.10;3.70;;;;;;;18.17;40.05;98533.10;235968;1190;24102;-75
2021/10/30 13:24:26;;;;;;;6.90;3.60;;;;;;;18.09;40.05;98530.48;235820;1198;24017;-73
2021/10/30 13:29:28;;;;;;;5.10;3.60;;;;;;;18.01;40.12;98523.77;236043;1190;22443;-75
2021/10/30 13:34:34;;;;;;;4.80;3.80;;;;;;;17.92;40.01;98522.10;235799;1197;24631;-75
2021/10/30 13:39:37;;;;;;;6.60;4.10;;;;;;;17.83;40.05;98526.94;236188;1193;22420;-75
2021/10/30 13:44:39;;;;;;;5.00;3.80;;;;;;;17.76;40.27;98519.98;236048;1174;24082;-75
2021/10/30 13:49:47;;;;;;;8.00;5.10;;;;;;;17.68;40.41;98524.08;236111;1197;23791;-75
2021/10/30 13:54:50;;;;;;;7.30;4.90;;;;;;;17.58;40.55;98526.60;236253;1196;22447;-75
2021/10/30 13:59:52;;;;;;;7.90;4.60;;;;;;;17.50;40.66;98531.77;236165;1196;24075;-75
2021/10/30 14:04:55;;;;;;;7.40;3.80;;;;;;;17.38;40.83;98528.67;236116;1197;24013;-75
2021/10/30 14:10:00;;;;;;;6.10;4.30;;;;;;;17.24;40.99;98529.27;235928;1197;24053;-76
2021/10/30 14:15:04;;;;;;;4.80;3.90;;;;;;;17.10;40.84;98525.65;236224;1197;25179;-75
2021/10/30 14:20:07;;;;;;;6.30;4.30;;;;;;;16.98;41.00;98524.00;235640;1198;24069;-75
2021/10/30 14:25:10;;;;;;;5.10;4.10;;;;;;;16.87;41.06;98527.52;235912;1197;24052;-75
2021/10/30 14:30:12;;;;;;;6.00;3.90;;;;;;;16.73;41.24;98525.08;235924;1197;24126;-73
2021/10/30 14:35:15;;;;;;;5.60;4.20;;;;;;;16.57;41.28;98522.55;236020;1197;24941;-75
2021/10/30 14:40:30;;;;;;;5.70;4.20;;;;;;;16.41;41.41;98518.60;235875;1197;24104;-75
2021/10/30 14:45:56;;;;;;;6.40;4.40;;;;;;;16.23;41.46;98510.43;236014;1197;22442;-75
2021/10/30 14:50:59;;;;;;;5.40;3.80;;;;;;;16.11;41.51;98510.70;236163;1197;23988;-73
2021/10/30 14:56:02;;;;;;;6.20;4.50;;;;;;;15.96;41.69;98496.39;236340;1193;22542;-74
2021/10/30 15:01:05;;;;;;;7.70;5.60;;;;;;;15.77;41.87;98493.48;236314;1196;24079;-75
2021/10/30 15:06:09;;;;;;;7.20;4.90;;;;;;;15.60;41.94;98487.61;236101;1190;22959;-75
2021/10/30 15:11:12;;;;;;;9.00;6.80;;;;;;;15.42;42.19;98480.27;235967;1190;22501;-73
2021/10/30 15:16:17;;;;;;;10.70;7.50;;;;;;;15.23;42.30;98471.91;235882;1197;22532;-75
2021/10/30 15:21:20;;;;;;;8.30;5.70;;;;;;;15.05;42.48;98468.91;236211;1182;24222;-75
2021/10/30 15:26:22;;;;;;;7.50;5.90;;;;;;;14.88;42.61;98463.84;235927;1197;22493;-76
2021/10/30 15:31:25;;;;;;;10.60;7.60;;;;;;;14.70;42.85;98462.66;236129;1197;24339;-77
2021/10/30 15:36:27;;;;;;;12.10;6.10;;;;;;;14.52;43.00;98461.24;236007;1196;24043;-76
2021/10/30 15:41:30;;;;;;;8.60;6.70;;;;;;;14.35;43.18;98461.55;236566;1181;24126;-75
2021/10/30 15:46:32;;;;;;;8.30;6.30;;;;;;;14.24;43.36;98455.83;236504;1193;25193;-76
2021/10/30 15:51:35;;;;;;;9.40;6.90;;;;;;;14.09;43.46;98457.98;236092;1190;24197;-75
2021/10/30 15:56:37;;;;;;;9.10;6.30;;;;;;;14.06;43.39;98467.45;236161;1196;22467;-75
2021/10/30 16:01:40;;;;;;;9.10;6.00;;;;;;;14.09;43.57;98469.45;236356;1196;22414;-77
2021/10/30 16:06:44;;;;;;;9.30;5.90;;;;;;;13.96;43.68;98471.39;236040;1197;22424;-76
2021/10/30 16:11:50;;;;;;;10.60;6.10;;;;;;;13.75;43.79;98472.66;235769;1197;24129;-74
2021/10/30 16:16:53;;;;;;;8.10;6.00;;;;;;;13.55;44.16;98468.45;236091;1197;24122;-74
2021/10/30 16:22:14;;;;;;;7.40;6.10;;;;;;;13.41;44.40;98450.00;236029;1189;22422;-75
2021/10/30 16:27:17;;;;;;;8.00;5.90;;;;;;;13.42;44.57;98438.02;236041;1197;23298;-75
2021/10/30 16:32:19;;;;;;;10.60;6.00;;;;;;;13.45;44.68;98435.10;236468;1197;24079;-74
2021/10/30 16:37:22;;;;;;;11.10;6.70;;;;;;;13.49;44.70;98426.29;235860;1193;25376;-74
2021/10/30 16:42:37;;;;;;;10.40;6.40;;;;;;;13.54;44.63;98413.35;236430;1190;24193;-75
2021/10/30 16:47:58;;;;;;;11.10;6.70;;;;;;;13.61;44.57;98406.64;236158;1197;24044;-75
2021/10/30 16:53:05;;;;;;;13.30;7.70;;;;;;;13.65;44.46;98401.33;235988;1191;24579;-75
2021/10/30 16:58:24;;;;;;;12.80;6.40;;;;;;;13.69;44.36;98401.88;236270;1174;24082;-75
2021/10/30 17:03:41;;;;;;;9.20;6.10;;;;;;;13.68;44.49;98408.05;235913;1193;24043;-75
2021/10/30 17:08:45;;;;;;;7.40;5.50;;;;;;;13.66;44.38;98411.27;236123;1197;25206;-75
2021/10/30 17:13:48;;;;;;;8.90;5.80;;;;;;;13.65;44.34;98413.00;236202;1197;22430;-75
2021/10/30 17:18:50;;;;;;;9.00;5.30;;;;;;;13.64;44.39;98422.85;236153;1190;22454;-73
2021/10/30 17:23:54;;;;;;;11.30;6.80;;;;;;;13.61;44.33;98420.98;236017;1197;22541;-73
2021/10/30 17:29:04;;;;;;;9.30;5.60;;;;;;;13.60;44.51;98416.83;236153;1197;22478;-76
2021/10/30 17:34:22;;;;;;;8.20;5.90;;;;;;;13.61;44.41;98421.71;235965;1194;22458;-75
2021/10/30 17:39:25;;;;;;;9.50;6.00;;;;;;;13.58;44.30;98425.21;235961;1197;25210;-75
2021/10/30 17:44:27;;;;;;;9.40;5.60;;;;;;;13.54;44.44;98424.57;236084;1194;22530;-75
2021/10/30 17:49:30;;;;;;;9.40;5.90;;;;;;;13.48;44.44;98419.49;235913;1190;24206;-74
2021/10/30 17:54:33;;;;;;;10.10;6.00;;;;;;;13.46;44.48;98411.11;236205;1190;24254;-75
2021/10/30 17:59:36;;;;;;;10.30;6.00;;;;;;;13.45;44.48;98415.35;236475;1196;22463;-75
2021/10/30 18:04:39;;;;;;;10.40;7.10;;;;;;;13.41;44.45;98415.69;236020;1197;24057;-74
2021/10/30 18:09:41;;;;;;;12.20;6.60;;;;;;;13.36;44.52;98406.09;236138;1197;22446;-73
2021/10/30 18:14:44;;;;;;;8.90;6.40;;;;;;;13.31;44.62;98406.45;235951;1197;24079;-75
2021/10/30 18:19:47;;;;;;;9.50;6.90;;;;;;;13.25;44.71;98421.88;236034;1190;23992;-75
2021/10/30 18:24:49;;;;;;;9.30;6.60;;;;;;;13.18;44.70;98421.02;235935;1197;24901;-76
2021/10/30 18:29:52;;;;;;;10.10;6.80;;;;;;;13.10;44.80;98423.27;236115;1191;22887;-75
2021/10/30 18:34:54;;;;;;;9.50;6.00;;;;;;;13.04;44.90;98434.74;236054;1197;24037;-74
2021/10/30 18:39:57;;;;;;;9.30;5.80;;;;;;;12.98;45.07;98436.78;235962;1197;22631;-75
2021/10/30 18:44:59;;;;;;;8.90;6.20;;;;;;;12.93;45.19;98440.44;236243;1190;24085;-76
2021/10/30 18:50:03;;;;;;;8.60;6.20;;;;;;;12.88;45.39;98435.27;236049;1184;24069;-73
2021/10/30 18:55:06;;;;;;;9.50;6.40;;;;;;;12.84;45.44;98439.98;235802;1193;22426;-73
2021/10/30 19:00:28;;;;;;;9.80;6.00;;;;;;;12.79;45.52;98456.90;236279;1190;22446;-75
2021/10/30 19:05:32;;;;;;;12.50;7.90;;;;;;;12.78;45.57;98478.30;235804;1190;24037;-75
2021/10/30 19:10:48;;;;;;;12.50;7.80;;;;;;;12.80;45.56;98495.23;236092;1184;24040;-73
2021/10/30 19:16:08;;;;;;;13.00;8.20;;;;;;;12.84;45.46;98514.76;235712;1198;24118;-74
2021/10/30 19:21:14;;;;;;;14.70;7.80;;;;;;;12.83;45.49;98518.80;235966;1190;24060;-75
2021/10/30 19:26:25;;;;;;;10.60;7.60;;;;;;;12.77;45.63;98521.46;236209;1197;24043;-75
2021/10/30 19:31:28;;;;;;;11.20;7.80;;;;;;;12.62;45.93;98515.21;236095;1197;24058;-75
2021/10/30 19:36:31;;;;;;;11.80;8.20;;;;;;;12.45;46.10;98519.14;236025;1183;24037;-75
2021/10/30 19:41:34;;;;;;;11.30;7.90;;;;;;;12.27;46.41;98524.35;235901;1198;24053;-73
2021/10/30 19:46:37;;;;;;;13.80;8.00;;;;;;;12.09;46.70;98527.77;236167;1197;25157;-73
2021/10/30 19:51:40;;;;;;;11.10;7.40;;;;;;;11.98;46.96;98525.40;235421;1193;24056;-76
2021/10/30 19:56:43;;;;;;;11.00;7.10;;;;;;;11.88;47.33;98546.39;236044;1194;22433;-75
2021/10/30 20:01:45;;;;;;;15.50;8.00;;;;;;;11.91;47.59;98564.23;236477;1196;24036;-76
2021/10/30 20:06:49;;;;;;;16.30;8.00;;;;;;;11.82;47.50;98550.20;236017;1184;24069;-75
2021/10/30 20:11:51;;;;;;;12.50;7.80;;;;;;;11.61;47.56;98548.40;236029;1197;25083;-73
2021/10/30 20:16:55;;;;;;;10.40;6.60;;;;;;;11.43;47.88;98547.73;236136;1197;22444;-75
2021/10/30 20:21:57;;;;;;;11.80;8.10;;;;;;;11.31;48.40;98559.13;236023;1197;22447;-75
2021/10/30 20:27:00;;;;;;;12.40;8.00;;;;;;;11.24;48.56;98544.47;235990;1174;25220;-75
2021/10/30 20:32:03;;;;;;;15.70;8.70;;;;;;;11.18;48.87;98568.91;236018;1190;24111;-76
2021/10/30 20:37:08;;;;;;;13.80;8.70;;;;;;;11.24;49.22;98584.84;236033;1190;24174;-75
2021/10/30 20:42:12;;;;;;;16.70;9.10;;;;;;;11.24;49.13;98578.98;236036;1191;24008;-72
2021/10/30 20:47:15;;;;;;;17.10;9.80;;;;;;;11.13;49.17;98576.10;236281;1197;22440;-76
2021/10/30 20:52:17;;;;;;;17.60;10.40;;;;;;;11.07;49.71;98592.92;236111;1196;22538;-74
2021/10/30 20:57:20;;;;;;;15.60;9.90;;;;;;;11.07;49.70;98602.05;236541;1196;24142;-75
2021/10/30 21:02:23;;;;;;;16.70;10.30;;;;;;;11.02;49.93;98615.58;236168;1191;24056;-75
2021/10/30 21:07:26;;;;;;;15.20;9.40;;;;;;;10.92;49.81;98613.39;236006;1197;24129;-76
2021/10/30 21:12:29;;;;;;;15.50;9.70;;;;;;;10.71;49.95;98595.38;236027;1190;24004;-77
2021/10/30 21:17:32;;;;;;;15.50;9.20;;;;;;;10.45;50.32;98591.44;235893;1197;24130;-75
2021/10/30 21:22:35;;;;;;;14.70;9.10;;;;;;;10.29;50.88;98609.20;235938;1197;24078;-74
2021/10/30 21:27:41;;;;;;;20.30;11.10;;;;;;;10.24;51.31;98616.92;235760;1190;24090;-75
2021/10/30 21:33:03;;;;;;;16.50;10.10;;;;;;;10.23;51.50;98603.73;236030;1197;25252;-72
2021/10/30 21:38:06;;;;;;;18.00;10.60;;;;;;;10.12;51.33;98596.45;235953;1190;23994;-75
2021/10/30 21:43:09;;;;;;;17.60;10.30;;;;;;;9.96;51.57;98590.20;236187;1197;22482;-75
2021/10/30 21:48:12;;;;;;;17.00;9.70;;;;;;;9.84;51.91;98589.05;236134;1197;25215;-76
2021/10/30 21:53:15;;;;;;;16.90;10.30;;;;;;;9.77;52.28;98604.50;236071;1196;25076;-73
2021/10/30 21:58:17;;;;;;;15.10;9.20;;;;;;;9.83;52.55;98610.15;236456;1189;22459;-75
2021/10/30 22:03:21;;;;;;;15.50;9.80;;;;;;;9.85;52.53;98614.14;236006;1190;24078;-75
2021/10/30 22:08:24;;;;;;;16.70;10.00;;;;;;;9.74;52.28;98637.34;236083;1197;22430;-74
2021/10/30 22:13:29;;;;;;;17.00;10.10;;;;;;;9.58;52.58;98637.09;236194;1190;25358;-76
2021/10/30 22:18:35;;;;;;;18.90;10.90;;;;;;;9.41;52.62;98619.68;236193;1197;22433;-75
2021/10/30 22:23:38;;;;;;;18.30;10.30;;;;;;;9.22;52.99;98624.36;236070;1184;24087;-75
2021/10/30 22:28:41;;;;;;;17.90;10.00;;;;;;;9.03;53.30;98641.23;236065;1190;26208;-73
2021/10/30 22:34:00;;;;;;;18.90;9.90;;;;;;;8.86;53.55;98640.19;235985;1197;24059;-75
2021/10/30 22:39:03;;;;;;;19.70;10.60;;;;;;;8.74;53.90;98639.96;236038;1197;24053;-75
2021/10/30 22:44:06;;;;;;;17.90;10.90;;;;;;;8.61;53.90;98645.40;236023;1197;22502;-73
2021/10/30 22:49:09;;;;;;;19.20;10.10;;;;;;;8.46;54.11;98643.10;235964;1183;22632;-74
2021/10/30 22:54:11;;;;;;;17.00;9.70;;;;;;;8.32;54.68;98648.66;236099;1194;22416;-73
2021/10/30 22:59:14;;;;;;;17.20;10.10;;;;;;;8.20;54.87;98644.78;236527;1196;22676;-75
2021/10/30 23:04:17;;;;;;;20.80;10.50;;;;;;;8.10;55.04;98643.18;236035;1197;22465;-74
2021/10/30 23:09:19;;;;;;;18.40;10.30;;;;;;;8.02;55.59;98636.71;235932;1197;25157;-75
2021/10/30 23:14:22;;;;;;;20.00;10.40;;;;;;;7.98;55.63;98648.63;235994;1197;25308;-73
2021/10/30 23:19:25;;;;;;;22.70;11.30;;;;;;;8.03;55.94;98657.56;235975;1197;22450;-75
2021/10/30 23:24:27;;;;;;;19.10;10.40;;;;;;;8.16;56.43;98657.67;236128;1190;25199;-75
2021/10/30 23:29:30;;;;;;;22.60;11.80;;;;;;;8.21;56.36;98654.59;236016;1190;24041;-74
2021/10/30 23:34:33;;;;;;;18.60;11.50;;;;;;;8.19;56.48;98664.31;236127;1197;22422;-75
2021/10/30 23:39:36;;;;;;;20.10;11.40;;;;;;;8.12;56.68;98665.91;236192;1190;22456;-74